Time;durP1;ratioP1;P1;durP2;ratioP2;P2;SDS_P1;SDS_P2;PMS_P1;PMS_P2;Temp;Humidity;BMP_temperature;BMP_pressure;BME280_temperature;BME280_humidity;BME280_pressure;Samples;Min_cycle;Max_cycle;Signal;HPM_P1;HPM_P2
2021/06/08 00:01:51;;;;;;;;;;;17.60;95.90;;;;;;5067143;28;19947;-73
2021/06/08 00:04:16;;;;;;;;;;;17.50;95.60;;;;;;5069836;28;19916;-74
2021/06/08 00:06:42;;;;;;;;;;;17.50;95.80;;;;;;5068965;28;19912;-73
2021/06/08 00:09:07;;;;;;;;;;;17.40;95.70;;;;;;5070477;28;20317;-73
2021/06/08 00:11:33;;;;;;;;;;;17.40;96.00;;;;;;5063290;28;19927;-73
2021/06/08 00:13:58;;;;;;;;;;;17.40;96.10;;;;;;5070502;28;19908;-73
2021/06/08 00:16:24;;;;;;;;;;;17.40;94.70;;;;;;5068459;28;19959;-73
2021/06/08 00:18:49;;;;;;;;;;;17.40;95.70;;;;;;5070258;28;20345;-73
2021/06/08 00:21:15;;;;;;;;;;;17.40;96.50;;;;;;5066247;28;19908;-73
2021/06/08 00:23:40;;;;;;;;;;;17.30;96.50;;;;;;5072860;28;19908;-73
2021/06/08 00:26:08;;;;;;;;;;;17.20;96.40;;;;;;5068360;28;20359;-74
2021/06/08 00:28:34;;;;;;;;;;;17.20;95.60;;;;;;5076634;28;19912;-73
2021/06/08 00:30:59;;;;;;;;;;;17.20;97.10;;;;;;5071970;28;19912;-73
2021/06/08 00:33:24;;;;;;;;;;;17.10;98.00;;;;;;5081522;28;19953;-73
2021/06/08 00:35:50;;;;;;;;;;;17.10;97.30;;;;;;5068528;28;20003;-73
2021/06/08 00:38:15;;;;;;;;;;;17.10;98.50;;;;;;5074861;28;19965;-74
2021/06/08 00:40:42;;;;;;;;;;;17.00;98.70;;;;;;5071549;28;19987;-73
2021/06/08 00:43:07;;;;;;;;;;;16.90;98.50;;;;;;5073829;28;19916;-74
2021/06/08 00:45:32;;;;;;;;;;;16.90;98.80;;;;;;5072721;28;19904;-74
2021/06/08 00:47:58;;;;;;;;;;;16.90;99.00;;;;;;5071335;28;19918;-73
2021/06/08 00:50:23;;;;;;;;;;;16.90;98.40;;;;;;5072733;28;19916;-74
2021/06/08 00:52:51;;;;;;;;;;;16.90;97.50;;;;;;5073505;28;19912;-74
2021/06/08 00:55:17;;;;;;;;;;;16.90;97.50;;;;;;5072472;28;19916;-74
2021/06/08 00:57:43;;;;;;;;;;;16.80;96.90;;;;;;5071334;28;19923;-74
2021/06/08 01:00:08;;;;;;;;;;;16.90;98.20;;;;;;5069503;28;19920;-74
2021/06/08 01:02:34;;;;;;;;;;;16.80;97.80;;;;;;5072376;28;19904;-74
2021/06/08 01:05:00;;;;;;;;;;;16.80;99.00;;;;;;5072519;28;19912;-74
2021/06/08 01:07:26;;;;;;;;;;;16.80;99.90;;;;;;5071705;28;19914;-74
2021/06/08 01:09:55;;;;;;;;;;;16.70;98.90;;;;;;5066625;28;20003;-73
2021/06/08 01:12:21;;;;;;;;;;;16.70;99.20;;;;;;5068488;28;19966;-74
2021/06/08 01:14:46;;;;;;;;;;;16.60;99.90;;;;;;5073348;28;19944;-73
2021/06/08 01:17:11;;;;;;;;;;;16.60;99.90;;;;;;5071593;28;19998;-74
2021/06/08 01:19:37;;;;;;;;;;;16.60;99.90;;;;;;5069840;28;20483;-73
2021/06/08 01:22:03;;;;;;;;;;;16.50;99.90;;;;;;5072303;28;19922;-73
2021/06/08 01:24:28;;;;;;;;;;;16.50;99.90;;;;;;5081581;28;20393;-74
2021/06/08 01:26:54;;;;;;;;;;;16.50;99.90;;;;;;5071549;28;19913;-71
2021/06/08 01:29:19;;;;;;;;;;;16.50;99.90;;;;;;5069394;28;19916;-71
2021/06/08 01:31:45;;;;;;;;;;;16.40;99.70;;;;;;5071814;28;19912;-71
2021/06/08 01:34:13;;;;;;;;;;;16.50;99.90;;;;;;5073151;28;20056;-72
2021/06/08 01:36:39;;;;;;;;;;;16.40;99.90;;;;;;5071743;28;19939;-72
2021/06/08 01:39:05;;;;;;;;;;;16.40;99.90;;;;;;5069952;28;19916;-73
2021/06/08 01:41:31;;;;;;;;;;;16.40;99.90;;;;;;5071845;28;19954;-73
2021/06/08 01:43:56;;;;;;;;;;;16.30;99.90;;;;;;5073261;28;19913;-73
2021/06/08 01:46:22;;;;;;;;;;;16.30;99.90;;;;;;5080662;28;19983;-73
2021/06/08 01:48:48;;;;;;;;;;;16.30;99.90;;;;;;5075602;28;19915;-72
2021/06/08 01:51:18;;;;;;;;;;;16.30;99.90;;;;;;5072035;28;20377;-73
2021/06/08 01:53:57;;;;;;;;;;;16.30;99.90;;;;;;5068217;28;19912;-73
2021/06/08 01:56:23;;;;;;;;;;;16.30;99.90;;;;;;5073990;28;19924;-73
2021/06/08 01:58:56;;;;;;;;;;;16.20;99.90;;;;;;5065143;28;19961;-72
2021/06/08 02:01:23;;;;;;;;;;;16.10;99.90;;;;;;5071433;28;20358;-72
2021/06/08 02:03:53;;;;;;;;;;;16.10;99.90;;;;;;5070407;28;20065;-72
2021/06/08 02:06:24;;;;;;;;;;;16.10;99.90;;;;;;5063979;28;19908;-72
2021/06/08 02:09:05;;;;;;;;;;;16.10;99.90;;;;;;5055588;28;20228;-73
2021/06/08 02:11:36;;;;;;;;;;;16.10;99.90;;;;;;5062565;28;19916;-72
2021/06/08 02:14:03;;;;;;;;;;;16.00;99.90;;;;;;5064604;28;19908;-73
2021/06/08 02:16:47;;;;;;;;;;;16.00;99.90;;;;;;5069517;28;19917;-73
2021/06/08 02:19:13;;;;;;;;;;;16.00;99.90;;;;;;5068201;28;19958;-73
2021/06/08 02:21:40;;;;;;;;;;;16.00;99.90;;;;;;5070096;28;19943;-73
2021/06/08 02:24:06;;;;;;;;;;;15.90;99.90;;;;;;5070389;28;19935;-72
2021/06/08 02:26:34;;;;;;;;;;;15.90;99.90;;;;;;5070020;28;20358;-73
2021/06/08 02:29:00;;;;;;;;;;;15.90;99.90;;;;;;5072949;28;19916;-73
2021/06/08 02:31:26;;;;;;;;;;;15.90;99.90;;;;;;5062823;28;20355;-73
2021/06/08 02:33:52;;;;;;;;;;;15.90;99.90;;;;;;5081128;28;19915;-73
2021/06/08 02:36:18;;;;;;;;;;;15.90;99.90;;;;;;5070045;28;19915;-73
2021/06/08 02:38:44;;;;;;;;;;;16.00;99.90;;;;;;5069617;28;20386;-73
2021/06/08 02:41:10;;;;;;;;;;;16.00;99.90;;;;;;5070342;28;19912;-72
2021/06/08 02:43:37;;;;;;;;;;;16.00;99.90;;;;;;5071349;28;20252;-72
2021/06/08 02:46:03;;;;;;;;;;;16.00;99.90;;;;;;5069854;28;20336;-73
2021/06/08 02:48:28;;;;;;;;;;;16.10;99.90;;;;;;5061846;28;19909;-72
2021/06/08 02:50:54;;;;;;;;;;;16.10;99.90;;;;;;5068211;28;19916;-73
2021/06/08 02:53:22;;;;;;;;;;;16.10;99.90;;;;;;5070087;28;19923;-72
2021/06/08 02:55:48;;;;;;;;;;;16.10;99.90;;;;;;5072206;28;20420;-73
2021/06/08 02:58:13;;;;;;;;;;;16.10;99.90;;;;;;5066715;28;20007;-73
2021/06/08 03:00:40;;;;;;;;;;;16.20;99.90;;;;;;5074988;28;20370;-72
2021/06/08 03:03:07;;;;;;;;;;;16.20;99.90;;;;;;5065861;28;19915;-72
2021/06/08 03:05:41;;;;;;;;;;;16.20;99.90;;;;;;5071850;28;19915;-73
2021/06/08 03:08:12;;;;;;;;;;;16.20;99.90;;;;;;5069813;28;20375;-73
2021/06/08 03:10:38;;;;;;;;;;;16.30;99.90;;;;;;5067932;28;20421;-72
2021/06/08 03:13:07;;;;;;;;;;;16.30;99.90;;;;;;5070977;28;19963;-72
2021/06/08 03:15:42;;;;;;;;;;;16.30;99.90;;;;;;5058239;28;20390;-73
2021/06/08 03:18:10;;;;;;;;;;;16.30;99.90;;;;;;5066370;28;19909;-72
2021/06/08 03:20:51;;;;;;;;;;;16.40;99.90;;;;;;5069649;28;19947;-72
2021/06/08 03:23:19;;;;;;;;;;;16.40;99.90;;;;;;5065733;28;19908;-73
2021/06/08 03:25:46;;;;;;;;;;;16.40;99.90;;;;;;5068985;28;21540;-73
2021/06/08 03:28:13;;;;;;;;;;;16.40;99.90;;;;;;5068999;28;19928;-72
2021/06/08 03:30:39;;;;;;;;;;;16.40;99.90;;;;;;5069030;28;19991;-72
2021/06/08 03:33:04;;;;;;;;;;;16.50;99.90;;;;;;5069516;28;19912;-73
2021/06/08 03:35:31;;;;;;;;;;;16.50;99.90;;;;;;5068570;28;20377;-72
2021/06/08 03:37:57;;;;;;;;;;;16.50;99.90;;;;;;5068985;28;19915;-72
2021/06/08 03:40:23;;;;;;;;;;;16.60;99.90;;;;;;5075204;28;19912;-73
2021/06/08 03:42:49;;;;;;;;;;;16.50;99.90;;;;;;5069780;28;19958;-72
2021/06/08 03:45:16;;;;;;;;;;;16.60;99.90;;;;;;5074832;28;19915;-73
2021/06/08 03:47:42;;;;;;;;;;;16.70;99.90;;;;;;5079782;28;19915;-73
2021/06/08 03:50:09;;;;;;;;;;;16.70;99.90;;;;;;5075081;28;20274;-73
2021/06/08 03:52:34;;;;;;;;;;;16.70;99.90;;;;;;5068594;28;20021;-72
2021/06/08 03:55:01;;;;;;;;;;;16.70;99.90;;;;;;5066835;28;20461;-73
2021/06/08 03:57:28;;;;;;;;;;;16.70;99.90;;;;;;5068075;28;20274;-73
2021/06/08 03:59:57;;;;;;;;;;;16.70;99.90;;;;;;5072265;28;19920;-72
2021/06/08 04:02:23;;;;;;;;;;;16.70;99.90;;;;;;5060155;28;19908;-72
2021/06/08 04:04:49;;;;;;;;;;;16.70;99.90;;;;;;5069162;28;19964;-72
2021/06/08 04:07:14;;;;;;;;;;;16.70;99.90;;;;;;5068208;28;20374;-73
2021/06/08 04:09:40;;;;;;;;;;;16.80;99.90;;;;;;5069562;28;20268;-72
2021/06/08 04:12:05;;;;;;;;;;;16.80;99.90;;;;;;5065782;28;19912;-72
2021/06/08 04:14:31;;;;;;;;;;;16.90;99.90;;;;;;5073371;28;20248;-72
2021/06/08 04:16:57;;;;;;;;;;;16.80;99.90;;;;;;5068161;28;19915;-73
2021/06/08 04:19:22;;;;;;;;;;;16.90;99.90;;;;;;5073430;28;20507;-72
2021/06/08 04:21:48;;;;;;;;;;;16.90;99.90;;;;;;5068612;28;20305;-72
2021/06/08 04:24:14;;;;;;;;;;;17.00;99.90;;;;;;5069267;28;20004;-73
2021/06/08 04:26:40;;;;;;;;;;;17.00;99.90;;;;;;5067373;28;19995;-73
2021/06/08 04:29:05;;;;;;;;;;;17.00;99.90;;;;;;5068449;28;19966;-73
2021/06/08 04:31:31;;;;;;;;;;;17.10;99.90;;;;;;5069057;28;19908;-72
2021/06/08 04:33:56;;;;;;;;;;;17.00;99.90;;;;;;5068742;28;19909;-73
2021/06/08 04:36:24;;;;;;;;;;;17.00;99.90;;;;;;5068292;28;20087;-73
2021/06/08 04:38:50;;;;;;;;;;;17.10;99.90;;;;;;5062147;28;19912;-72
2021/06/08 04:41:15;;;;;;;;;;;17.10;99.90;;;;;;5067506;28;19914;-73
2021/06/08 04:43:41;;;;;;;;;;;17.10;99.90;;;;;;5068677;28;20274;-73
2021/06/08 04:46:10;;;;;;;;;;;17.10;99.90;;;;;;5068355;28;19908;-72
2021/06/08 04:48:35;;;;;;;;;;;17.10;99.90;;;;;;5074262;28;20271;-73
2021/06/08 04:51:01;;;;;;;;;;;17.20;99.90;;;;;;5076029;28;19912;-73
2021/06/08 04:53:26;;;;;;;;;;;17.20;99.90;;;;;;5068253;28;19915;-72
2021/06/08 04:55:52;;;;;;;;;;;17.20;99.90;;;;;;5067833;28;19924;-72
2021/06/08 04:58:18;;;;;;;;;;;17.20;99.90;;;;;;5069252;28;20001;-73
2021/06/08 05:00:56;;;;;;;;;;;17.30;99.90;;;;;;5066591;28;19958;-74
2021/06/08 05:03:23;;;;;;;;;;;17.30;99.90;;;;;;5063400;28;20019;-72
2021/06/08 05:05:52;;;;;;;;;;;17.30;99.90;;;;;;5068128;28;19909;-73
2021/06/08 05:08:20;;;;;;;;;;;17.40;99.90;;;;;;5049026;28;20305;-73
2021/06/08 05:10:52;;;;;;;;;;;17.40;99.90;;;;;;5065063;28;19912;-72
2021/06/08 05:13:18;;;;;;;;;;;17.40;99.90;;;;;;5063486;28;19934;-73
2021/06/08 05:15:44;;;;;;;;;;;17.50;99.90;;;;;;5068698;28;20003;-73
2021/06/08 05:18:11;;;;;;;;;;;17.50;99.90;;;;;;5073639;28;19915;-73
2021/06/08 05:20:41;;;;;;;;;;;17.50;99.90;;;;;;5073397;28;20041;-72
2021/06/08 05:23:07;;;;;;;;;;;17.60;99.90;;;;;;5062677;28;19998;-73
2021/06/08 05:25:33;;;;;;;;;;;17.70;99.90;;;;;;5069034;28;19908;-73
2021/06/08 05:28:00;;;;;;;;;;;17.70;99.90;;;;;;5082858;28;19961;-73
2021/06/08 05:30:26;;;;;;;;;;;17.70;99.90;;;;;;5068896;28;19995;-74
2021/06/08 05:32:51;;;;;;;;;;;17.80;99.90;;;;;;5066095;28;19995;-73
2021/06/08 05:35:23;;;;;;;;;;;17.80;99.90;;;;;;5067397;28;20278;-74
2021/06/08 05:37:49;;;;;;;;;;;17.90;99.90;;;;;;5068011;28;19916;-74
2021/06/08 05:40:14;;;;;;;;;;;18.00;99.90;;;;;;5058156;28;19912;-74
2021/06/08 05:42:39;;;;;;;;;;;18.00;99.90;;;;;;5069813;28;19908;-73
2021/06/08 05:45:05;;;;;;;;;;;18.10;99.90;;;;;;5066452;28;19923;-73
2021/06/08 05:47:31;;;;;;;;;;;18.20;99.90;;;;;;5069444;28;20402;-74
2021/06/08 05:49:56;;;;;;;;;;;18.30;99.90;;;;;;5066625;28;20370;-73
2021/06/08 05:52:22;;;;;;;;;;;18.40;99.90;;;;;;5064207;28;19908;-74
2021/06/08 05:54:48;;;;;;;;;;;18.40;99.90;;;;;;5069652;28;19985;-74
2021/06/08 05:57:14;;;;;;;;;;;18.60;99.90;;;;;;5068754;28;19973;-73
2021/06/08 05:59:40;;;;;;;;;;;18.60;99.90;;;;;;5066174;28;20587;-74
2021/06/08 06:02:06;;;;;;;;;;;18.60;99.90;;;;;;5067828;28;20010;-73
2021/06/08 06:04:31;;;;;;;;;;;18.70;99.90;;;;;;5058684;28;19995;-72
2021/06/08 06:06:58;;;;;;;;;;;18.70;99.90;;;;;;5054816;28;19909;-74
2021/06/08 06:09:24;;;;;;;;;;;18.80;99.90;;;;;;5057193;28;20042;-73
2021/06/08 06:11:51;;;;;;;;;;;18.90;99.90;;;;;;5061849;28;19995;-73
2021/06/08 06:14:21;;;;;;;;;;;19.00;99.90;;;;;;5067277;28;19916;-73
2021/06/08 06:16:49;;;;;;;;;;;19.10;99.90;;;;;;5066054;28;20371;-73
2021/06/08 06:19:14;;;;;;;;;;;19.20;99.90;;;;;;5067624;28;19913;-73
2021/06/08 06:21:40;;;;;;;;;;;19.30;99.90;;;;;;5060328;28;19908;-73
2021/06/08 06:24:06;;;;;;;;;;;19.40;99.90;;;;;;5069963;28;19915;-73
2021/06/08 06:26:33;;;;;;;;;;;19.50;99.90;;;;;;5068258;28;19943;-72
2021/06/08 06:28:59;;;;;;;;;;;19.60;99.90;;;;;;5067381;28;19912;-72
2021/06/08 06:31:26;;;;;;;;;;;19.70;99.90;;;;;;5067926;28;20005;-72
2021/06/08 06:33:55;;;;;;;;;;;19.80;99.90;;;;;;5067558;28;19956;-73
2021/06/08 06:36:21;;;;;;;;;;;19.90;98.70;;;;;;5059579;28;19940;-75
2021/06/08 06:38:48;;;;;;;;;;;19.90;99.20;;;;;;5065720;28;20355;-73
2021/06/08 06:41:15;;;;;;;;;;;19.90;99.90;;;;;;5064733;28;19909;-74
2021/06/08 06:43:46;;;;;;;;;;;19.80;99.60;;;;;;5069920;28;19911;-73
2021/06/08 06:46:11;;;;;;;;;;;19.70;98.90;;;;;;5070044;28;19915;-73
2021/06/08 06:48:37;;;;;;;;;;;19.70;98.00;;;;;;5067878;28;19904;-73
2021/06/08 06:51:05;;;;;;;;;;;19.70;99.00;;;;;;5069583;28;19958;-74
2021/06/08 06:53:31;;;;;;;;;;;19.60;99.60;;;;;;5051648;28;19904;-73
2021/06/08 06:55:56;;;;;;;;;;;19.60;99.80;;;;;;5062502;28;19917;-73
2021/06/08 06:58:22;;;;;;;;;;;19.60;98.80;;;;;;5063643;28;19926;-72
2021/06/08 07:00:48;;;;;;;;;;;19.60;99.60;;;;;;5068780;28;19909;-73
2021/06/08 07:03:18;;;;;;;;;;;19.70;99.90;;;;;;5069317;28;20375;-72
2021/06/08 07:05:44;;;;;;;;;;;19.70;99.20;;;;;;5068950;28;19904;-73
2021/06/08 07:08:10;;;;;;;;;;;19.80;98.40;;;;;;5068481;28;20007;-73
2021/06/08 07:10:36;;;;;;;;;;;19.90;98.60;;;;;;5061799;28;19992;-72
2021/06/08 07:13:06;;;;;;;;;;;19.90;98.60;;;;;;5069195;28;19916;-73
2021/06/08 07:15:32;;;;;;;;;;;20.00;98.80;;;;;;5067872;28;19914;-73
2021/06/08 07:17:58;;;;;;;;;;;20.10;98.20;;;;;;5069022;28;19913;-73
2021/06/08 07:20:24;;;;;;;;;;;20.10;97.50;;;;;;5069321;28;20045;-73
2021/06/08 07:22:50;;;;;;;;;;;20.20;97.80;;;;;;5060375;28;20384;-73
2021/06/08 07:25:16;;;;;;;;;;;20.30;97.30;;;;;;5069079;28;19909;-74
2021/06/08 07:27:42;;;;;;;;;;;20.30;96.40;;;;;;5069097;28;19909;-72
2021/06/08 07:30:08;;;;;;;;;;;20.30;95.20;;;;;;5068813;28;19908;-73
2021/06/08 07:32:34;;;;;;;;;;;20.40;94.30;;;;;;5059772;28;19913;-73
2021/06/08 07:35:06;;;;;;;;;;;20.50;94.60;;;;;;5064886;28;19912;-73
2021/06/08 07:37:33;;;;;;;;;;;20.50;93.80;;;;;;5069485;28;20010;-73
2021/06/08 07:40:02;;;;;;;;;;;20.60;93.10;;;;;;5068052;28;19924;-73
2021/06/08 07:42:45;;;;;;;;;;;20.70;92.10;;;;;;5064428;28;19908;-73
2021/06/08 07:45:12;;;;;;;;;;;20.70;91.50;;;;;;5068540;28;19915;-73
2021/06/08 07:47:38;;;;;;;;;;;20.80;92.10;;;;;;5069051;28;19904;-73
2021/06/08 07:50:06;;;;;;;;;;;20.90;91.10;;;;;;5057267;28;19912;-73
2021/06/08 07:52:32;;;;;;;;;;;21.00;90.20;;;;;;5068834;28;19905;-73
2021/06/08 07:54:58;;;;;;;;;;;21.00;88.40;;;;;;5067516;28;19917;-73
2021/06/08 07:57:24;;;;;;;;;;;21.10;90.70;;;;;;5067985;28;19965;-73
2021/06/08 07:59:50;;;;;;;;;;;21.10;90.80;;;;;;5063800;28;19912;-73
2021/06/08 08:02:19;;;;;;;;;;;21.20;86.90;;;;;;5068017;28;19946;-73
2021/06/08 08:04:52;;;;;;;;;;;21.30;84.60;;;;;;5062840;28;19916;-72
2021/06/08 08:07:19;;;;;;;;;;;21.40;84.90;;;;;;5067345;28;19909;-73
2021/06/08 08:09:45;;;;;;;;;;;21.50;85.10;;;;;;5061568;28;20556;-73
2021/06/08 08:12:10;;;;;;;;;;;21.50;82.10;;;;;;5065253;28;19913;-73
2021/06/08 08:14:36;;;;;;;;;;;21.60;82.90;;;;;;5067432;28;19923;-73
2021/06/08 08:17:02;;;;;;;;;;;21.70;85.10;;;;;;5067334;28;19995;-73
2021/06/08 08:19:28;;;;;;;;;;;21.80;83.70;;;;;;5065297;28;19913;-73
2021/06/08 08:21:53;;;;;;;;;;;21.80;81.40;;;;;;5067196;28;19943;-73
2021/06/08 08:24:19;;;;;;;;;;;21.90;84.30;;;;;;5062615;28;19904;-73
2021/06/08 08:26:44;;;;;;;;;;;22.00;82.50;;;;;;5068050;28;19916;-77
2021/06/08 08:29:10;;;;;;;;;;;22.00;82.90;;;;;;5067692;28;19919;-73
2021/06/08 08:31:37;;;;;;;;;;;22.20;81.70;;;;;;5059637;28;19931;-73
2021/06/08 08:34:03;;;;;;;;;;;22.20;80.80;;;;;;5067262;28;19908;-73
2021/06/08 08:36:29;;;;;;;;;;;22.30;83.50;;;;;;5068775;28;19904;-73
2021/06/08 08:38:54;;;;;;;;;;;22.30;81.10;;;;;;5067544;28;19919;-73
2021/06/08 08:41:20;;;;;;;;;;;22.40;81.70;;;;;;5059053;28;19909;-72
2021/06/08 08:43:47;;;;;;;;;;;22.50;80.40;;;;;;5067087;28;19912;-73
2021/06/08 08:46:13;;;;;;;;;;;22.50;77.30;;;;;;5072082;28;19919;-73
2021/06/08 08:48:42;;;;;;;;;;;22.60;78.80;;;;;;5071866;28;19916;-73
2021/06/08 08:51:10;;;;;;;;;;;22.60;77.10;;;;;;5060753;28;19923;-74
2021/06/08 08:53:36;;;;;;;;;;;22.70;72.40;;;;;;5065795;28;19908;-72
2021/06/08 08:56:02;;;;;;;;;;;22.80;72.10;;;;;;5066890;28;20282;-73
2021/06/08 08:58:29;;;;;;;;;;;22.90;68.90;;;;;;5071512;28;20279;-73
2021/06/08 09:00:58;;;;;;;;;;;23.00;67.30;;;;;;5070771;28;19908;-73
2021/06/08 09:03:24;;;;;;;;;;;23.00;70.00;;;;;;5071696;28;19913;-73
2021/06/08 09:05:50;;;;;;;;;;;23.00;68.50;;;;;;5071208;28;20259;-73
2021/06/08 09:08:16;;;;;;;;;;;23.10;64.30;;;;;;5068750;28;19908;-72
2021/06/08 09:10:42;;;;;;;;;;;23.10;67.00;;;;;;5072007;28;19911;-72
2021/06/08 09:13:08;;;;;;;;;;;23.20;66.40;;;;;;5071464;28;19909;-71
2021/06/08 09:15:35;;;;;;;;;;;23.20;67.90;;;;;;5065956;28;20008;-72
2021/06/08 09:18:01;;;;;;;;;;;23.30;64.10;;;;;;5070497;28;19908;-72
2021/06/08 09:20:26;;;;;;;;;;;23.40;65.40;;;;;;5071611;28;19914;-71
2021/06/08 09:22:56;;;;;;;;;;;23.50;66.90;;;;;;5063857;28;19913;-72
2021/06/08 09:25:33;;;;;;;;;;;23.50;65.20;;;;;;5071019;28;20014;-74
2021/06/08 09:28:16;;;;;;;;;;;23.50;64.80;;;;;;5069225;28;19954;-73
2021/06/08 09:30:41;;;;;;;;;;;23.60;65.10;;;;;;5071338;28;19911;-74
2021/06/08 09:33:20;;;;;;;;;;;23.70;63.80;;;;;;5069568;28;20270;-72
2021/06/08 09:35:49;;;;;;;;;;;23.80;63.90;;;;;;5063289;28;19916;-72
2021/06/08 09:38:15;;;;;;;;;;;23.80;65.00;;;;;;5069589;28;19909;-71
2021/06/08 09:40:41;;;;;;;;;;;23.80;63.00;;;;;;5069984;28;19915;-72
2021/06/08 09:43:12;;;;;;;;;;;23.80;67.30;;;;;;5065902;28;19916;-72
2021/06/08 09:45:41;;;;;;;;;;;23.90;69.70;;;;;;5058446;28;20429;-72
2021/06/08 09:48:07;;;;;;;;;;;24.00;66.50;;;;;;5066326;28;19912;-72
2021/06/08 09:50:36;;;;;;;;;;;24.10;65.00;;;;;;5071047;28;19912;-72
2021/06/08 09:53:20;;;;;;;;;;;24.20;64.50;;;;;;5070870;28;19923;-73
2021/06/08 09:56:03;;;;;;;;;;;24.40;64.50;;;;;;5069634;28;19920;-73
2021/06/08 09:58:29;;;;;;;;;;;24.40;64.90;;;;;;5060385;28;19908;-72
2021/06/08 10:01:08;;;;;;;;;;;24.50;66.00;;;;;;5067555;28;19908;-71
2021/06/08 10:03:34;;;;;;;;;;;24.50;64.00;;;;;;5067887;28;19908;-73
2021/06/08 10:06:06;;;;;;;;;;;24.70;63.50;;;;;;5070335;28;19908;-74
2021/06/08 10:08:32;;;;;;;;;;;24.70;62.90;;;;;;5070074;28;19908;-74
2021/06/08 10:10:59;;;;;;;;;;;24.70;63.20;;;;;;5067632;28;19914;-72
2021/06/08 10:13:25;;;;;;;;;;;24.80;62.70;;;;;;5059721;28;19916;-73
2021/06/08 10:15:52;;;;;;;;;;;24.80;61.60;;;;;;5068587;28;19908;-73
2021/06/08 10:18:18;;;;;;;;;;;24.90;62.50;;;;;;5060220;28;19932;-73
2021/06/08 10:20:47;;;;;;;;;;;25.00;61.70;;;;;;5070325;28;19908;-72
2021/06/08 10:23:17;;;;;;;;;;;25.00;62.30;;;;;;5070369;28;20377;-72
2021/06/08 10:25:43;;;;;;;;;;;25.10;64.80;;;;;;5070665;28;19917;-72
2021/06/08 10:28:10;;;;;;;;;;;25.30;60.50;;;;;;5063637;28;19909;-72
2021/06/08 10:30:36;;;;;;;;;;;25.20;60.20;;;;;;5070204;28;19909;-72
2021/06/08 10:33:02;;;;;;;;;;;25.20;60.90;;;;;;5070485;28;19950;-72
2021/06/08 10:35:27;;;;;;;;;;;25.20;62.60;;;;;;5070294;28;19904;-72
2021/06/08 10:37:54;;;;;;;;;;;25.10;59.50;;;;;;5065735;28;20261;-72
2021/06/08 10:40:19;;;;;;;;;;;24.90;61.50;;;;;;5061589;28;19970;-72
2021/06/08 10:42:45;;;;;;;;;;;24.80;62.00;;;;;;5070403;28;19947;-72
2021/06/08 10:45:10;;;;;;;;;;;24.70;60.80;;;;;;5069088;28;19919;-73
2021/06/08 10:47:44;;;;;;;;;;;24.60;61.80;;;;;;5068893;28;19909;-72
2021/06/08 10:50:21;;;;;;;;;;;24.50;62.80;;;;;;5069528;28;19908;-73
2021/06/08 10:52:47;;;;;;;;;;;24.30;63.60;;;;;;5058001;28;19995;-72
2021/06/08 10:55:12;;;;;;;;;;;24.30;65.00;;;;;;5068608;28;20035;-72
2021/06/08 10:57:45;;;;;;;;;;;24.30;65.70;;;;;;5068507;28;19908;-72
2021/06/08 11:00:43;;;;;;;;;;;24.40;64.20;;;;;;5068583;28;20412;-73
2021/06/08 11:03:10;;;;;;;;;;;24.50;63.50;;;;;;5027218;28;19915;-73
2021/06/08 11:05:49;;;;;;;;;;;24.60;62.80;;;;;;5067127;28;19924;-72
2021/06/08 11:08:15;;;;;;;;;;;24.70;63.60;;;;;;5066428;28;20386;-73
2021/06/08 11:10:45;;;;;;;;;;;24.90;64.70;;;;;;5068677;28;19908;-72
2021/06/08 11:13:16;;;;;;;;;;;25.30;63.00;;;;;;5065390;28;19905;-72
2021/06/08 11:15:43;;;;;;;;;;;25.50;60.80;;;;;;5066762;28;19915;-73
2021/06/08 11:18:17;;;;;;;;;;;25.60;61.90;;;;;;5068949;28;19908;-73
2021/06/08 11:20:43;;;;;;;;;;;25.80;62.30;;;;;;5066912;28;20396;-73
2021/06/08 11:23:08;;;;;;;;;;;26.00;62.10;;;;;;5069001;28;19904;-73
2021/06/08 11:25:39;;;;;;;;;;;26.10;59.20;;;;;;5067800;28;20402;-72
2021/06/08 11:28:11;;;;;;;;;;;26.20;58.30;;;;;;5068807;28;20417;-72
2021/06/08 11:30:44;;;;;;;;;;;26.20;59.10;;;;;;5066055;28;19931;-72
2021/06/08 11:33:38;;;;;;;;;;;26.30;57.20;;;;;;5067520;28;19908;-72
2021/06/08 11:36:19;;;;;;;;;;;26.50;59.90;;;;;;5046596;28;19909;-72
2021/06/08 11:38:45;;;;;;;;;;;27.60;55.80;;;;;;5069240;28;19958;-73
2021/06/08 11:41:11;;;;;;;;;;;28.50;54.20;;;;;;5063381;28;19908;-72
2021/06/08 11:43:37;;;;;;;;;;;28.30;53.50;;;;;;5068857;28;20373;-72
2021/06/08 11:46:13;;;;;;;;;;;27.80;54.00;;;;;;5069287;28;19904;-72
2021/06/08 11:48:44;;;;;;;;;;;27.40;55.10;;;;;;5065325;28;19947;-72
2021/06/08 11:51:15;;;;;;;;;;;27.10;54.60;;;;;;5062913;28;19908;-73
2021/06/08 11:54:00;;;;;;;;;;;26.80;56.30;;;;;;5068031;28;19932;-72
2021/06/08 11:56:40;;;;;;;;;;;26.80;56.10;;;;;;5062520;28;19916;-72
2021/06/08 11:59:07;;;;;;;;;;;26.70;57.10;;;;;;5064047;28;20362;-77
2021/06/08 12:01:37;;;;;;;;;;;27.00;58.40;;;;;;5065080;28;19958;-77
2021/06/08 12:04:03;;;;;;;;;;;27.30;58.10;;;;;;5063357;28;19908;-77
2021/06/08 12:06:47;;;;;;;;;;;28.30;55.20;;;;;;5061276;28;20034;-73
2021/06/08 12:09:17;;;;;;;;;;;29.20;51.90;;;;;;5057002;28;20007;-72
2021/06/08 12:11:42;;;;;;;;;;;30.20;50.30;;;;;;5063072;28;20480;-72
2021/06/08 12:14:08;;;;;;;;;;;31.10;49.00;;;;;;5068409;28;20022;-74
2021/06/08 12:16:33;;;;;;;;;;;31.70;48.60;;;;;;5066923;28;19928;-72
2021/06/08 12:19:05;;;;;;;;;;;32.60;47.70;;;;;;5079400;28;19912;-72
2021/06/08 12:21:32;;;;;;;;;;;33.00;44.00;;;;;;5063760;28;19950;-73
2021/06/08 12:23:59;;;;;;;;;;;32.40;43.40;;;;;;5068721;28;20355;-73
2021/06/08 12:26:24;;;;;;;;;;;32.00;44.40;;;;;;5070638;28;19912;-73
2021/06/08 12:29:07;;;;;;;;;;;31.50;44.70;;;;;;5070322;28;19908;-73
2021/06/08 12:31:33;;;;;;;;;;;31.00;44.70;;;;;;5071356;28;19965;-73
2021/06/08 12:33:59;;;;;;;;;;;30.50;44.30;;;;;;5072822;28;19904;-73
2021/06/08 12:36:31;;;;;;;;;;;30.50;45.90;;;;;;5068818;28;19916;-75
2021/06/08 12:38:57;;;;;;;;;;;30.40;45.00;;;;;;5064639;28;19916;-81
2021/06/08 12:41:25;;;;;;;;;;;30.80;47.20;;;;;;5071278;28;19909;-76
2021/06/08 12:43:57;;;;;;;;;;;31.50;46.10;;;;;;5071559;28;19916;-82
2021/06/08 12:46:26;;;;;;;;;;;31.60;45.60;;;;;;5070355;28;19927;-74
2021/06/08 12:49:04;;;;;;;;;;;31.30;45.60;;;;;;5068643;28;19912;-75
2021/06/08 12:51:31;;;;;;;;;;;30.80;45.60;;;;;;5066922;28;19908;-74
2021/06/08 12:53:56;;;;;;;;;;;30.20;47.80;;;;;;5071739;28;19908;-74
2021/06/08 12:56:22;;;;;;;;;;;29.60;47.90;;;;;;5071395;28;19982;-75
2021/06/08 12:58:48;;;;;;;;;;;29.20;49.40;;;;;;5069779;28;19912;-75
2021/06/08 13:01:13;;;;;;;;;;;29.00;51.10;;;;;;5070915;28;20003;-75
2021/06/08 13:03:40;;;;;;;;;;;29.20;49.60;;;;;;5070279;28;20054;-84
2021/06/08 13:06:08;;;;;;;;;;;30.00;49.30;;;;;;5071435;28;19939;-75
2021/06/08 13:08:35;;;;;;;;;;;31.50;48.40;;;;;;5071232;28;19916;-76
2021/06/08 13:11:00;;;;;;;;;;;32.10;44.40;;;;;;5069990;28;20362;-73
2021/06/08 13:13:31;;;;;;;;;;;31.40;45.90;;;;;;5067792;28;19923;-74
2021/06/08 13:15:56;;;;;;;;;;;31.00;46.60;;;;;;5074202;28;19918;-74
2021/06/08 13:18:23;;;;;;;;;;;30.50;45.90;;;;;;5072816;28;19908;-74
2021/06/08 13:20:57;;;;;;;;;;;30.40;46.90;;;;;;5069108;28;20003;-73
2021/06/08 13:23:23;;;;;;;;;;;31.50;44.60;;;;;;5067742;28;19991;-73
2021/06/08 13:26:00;;;;;;;;;;;32.60;45.30;;;;;;5064442;28;20378;-73
2021/06/08 13:28:33;;;;;;;;;;;33.20;43.50;;;;;;5053279;28;19912;-74
2021/06/08 13:31:09;;;;;;;;;;;33.90;41.80;;;;;;5069348;28;19909;-74
2021/06/08 13:33:37;;;;;;;;;;;34.60;42.70;;;;;;5061390;28;20007;-73
2021/06/08 13:36:03;;;;;;;;;;;35.20;39.50;;;;;;5066791;28;19934;-73
2021/06/08 13:38:29;;;;;;;;;;;35.70;40.40;;;;;;5061099;28;19912;-73
2021/06/08 13:40:56;;;;;;;;;;;35.80;39.10;;;;;;5070702;28;19939;-73
2021/06/08 13:43:21;;;;;;;;;;;35.70;38.00;;;;;;5051133;28;19915;-74
2021/06/08 13:45:51;;;;;;;;;;;34.90;37.60;;;;;;5071007;28;19995;-74
2021/06/08 13:48:37;;;;;;;;;;;34.30;40.00;;;;;;5070480;28;19999;-73
2021/06/08 13:51:25;;;;;;;;;;;34.50;39.90;;;;;;5066431;28;20359;-73
2021/06/08 13:54:17;;;;;;;;;;;35.30;38.30;;;;;;5067839;28;19908;-73
2021/06/08 13:56:46;;;;;;;;;;;36.10;38.60;;;;;;5069380;28;20410;-74
2021/06/08 14:01:58;;;;;;;;;;;35.40;38.40;;;;;;5068958;28;20011;-73
2021/06/08 14:04:25;;;;;;;;;;;36.00;35.70;;;;;;5061441;28;19908;-74
2021/06/08 14:06:55;;;;;;;;;;;36.40;36.80;;;;;;5069256;28;19935;-73
2021/06/08 14:09:23;;;;;;;;;;;36.50;36.90;;;;;;5058200;28;19912;-74
2021/06/08 14:11:49;;;;;;;;;;;36.50;36.50;;;;;;5069132;28;19912;-75
2021/06/08 14:14:25;;;;;;;;;;;36.90;36.40;;;;;;5070475;28;19951;-83
2021/06/08 14:16:50;;;;;;;;;;;37.50;35.80;;;;;;5069912;28;19909;-75
2021/06/08 14:19:16;;;;;;;;;;;37.10;35.70;;;;;;5068467;28;19919;-72
2021/06/08 14:21:42;;;;;;;;;;;36.20;35.30;;;;;;5059590;28;19953;-75
2021/06/08 14:24:08;;;;;;;;;;;35.20;37.50;;;;;;5069967;28;20008;-75